LiveATC.Net - Listen to live air traffic control over the Internet!

ICAO: KRNT  IATA: RNT   Airport: Renton Municipal Airport
City: Renton   State/Province: Washington
Country: United States   Continent: North America
KRNT METAR Weather: KRNT 172153Z VRB06KT 10SM OVC039 12/02 A2992 RMK AO2 SLP135 T01170022
KRNT Flight Activity (FlightAware)
KRNT Webcam:  (Airport Webcams) 
KRNT Airport Info   (AirNav) (iFlightPlanner)
KRNT VFR Sectional Chart   (iFlightPlanner) 
KRNT IFR Low Chart   (iFlightPlanner) 
KRNT Gnd/Twr/Unicom
Feed Status: DOWN
Last heard on: 2018-03-17 21:53:03 (0 days 0 hours 35 minutes ago)
KRNT Gnd/Twr/Unicom Audio Archives
AirO Unicom122.950
ProFlight Unicom122.850
Renton Ground121.600
Renton Tower124.700


Unauthorized use prohibited. See Terms of Service

Find LiveATC Audio Streams

Airport/ARTCC Code

Frequency Search
(e.g., 124.400, 128.75)
Site-wide search

Browse LiveATC Feeds
LiveATC Coverage Map
Top 50 LiveATC Feeds
Bad Weather Areas

Offer a LiveATC Feed
Press Inquiries

LiveATC on iPhone
LiveATC on Android

Windows Phone
Windows 8/10

LiveATC Mobile
(Mobile browser)

ATC Audio Archives
Interesting Recordings

LiveATC Forums

Home Page
Make a Donation
Terms of Use
Privacy Policy

Canadian Air Freqs


FAA Airport Status
Nat'l Airspace Status
Arrival Demand Charts

Server Software By: